CVL2 weather

Vulcan / Kirkcaldy Airport
Vulcan, Alberta, Canada

Public forecast

Using degrees Celsius for public forecast. Weather courtesy of forecast.io.

METAR (pilot weather report)

Closest report is Lethbridge County Airport, 47.3 nm (87.6 km) SSE. Retrieved 2019/08/21 01:00 UTC (48 minutes ago):

CYQL 210100Z 12007KT 60SM FEW300 27/10 A3004 RMK CI2 SLP170 DENSITY ALT 5000FT

TAF (pilot weather forecast)

Forecast is more than 12 hours old.

Closest forecast is Lethbridge County Airport, 47.3 nm (87.6 km) SSE. Retrieved 2019/08/20 00:39 UTC (1 day ago):

TAF CYQL 202338Z 2100/2112 12010KT P6SM FEW070 SCT300 BECMG 2107/2109 22006KT RMK NXT FCST BY 210600Z